sensor_id;sensor_type;location;lat;lon;timestamp;pressure;altitude;pressure_sealevel;temperature;humidity
23659;BME280;12006;42.666;23.326;2023-02-17T00:00:10;-23809.44;;;1.09;100.00
23659;BME280;12006;42.666;23.326;2023-02-17T00:02:36;-23808.91;;;1.07;100.00
23659;BME280;12006;42.666;23.326;2023-02-17T00:05:03;-23804.44;;;0.94;100.00
23659;BME280;12006;42.666;23.326;2023-02-17T00:07:30;-23802.88;;;0.90;100.00
23659;BME280;12006;42.666;23.326;2023-02-17T00:09:57;-23806.16;;;0.99;100.00
23659;BME280;12006;42.666;23.326;2023-02-17T00:12:23;-23803.75;;;0.92;100.00
23659;BME280;12006;42.666;23.326;2023-02-17T00:14:48;-23804.44;;;0.94;100.00
23659;BME280;12006;42.666;23.326;2023-02-17T00:17:14;-23803.22;;;0.91;100.00
23659;BME280;12006;42.666;23.326;2023-02-17T00:19:39;-23803.41;;;0.91;100.00
23659;BME280;12006;42.666;23.326;2023-02-17T00:22:04;-23801.34;;;0.85;100.00
23659;BME280;12006;42.666;23.326;2023-02-17T00:24:31;-23799.78;;;0.81;100.00
23659;BME280;12006;42.666;23.326;2023-02-17T00:26:57;-23797.72;;;0.75;100.00
23659;BME280;12006;42.666;23.326;2023-02-17T00:29:22;-23799.25;;;0.79;100.00
23659;BME280;12006;42.666;23.326;2023-02-17T00:31:47;-23800.66;;;0.83;100.00
23659;BME280;12006;42.666;23.326;2023-02-17T00:34:15;-23800.47;;;0.83;100.00
23659;BME280;12006;42.666;23.326;2023-02-17T00:36:41;-23798.06;;;0.76;100.00
23659;BME280;12006;42.666;23.326;2023-02-17T00:39:07;-23795.31;;;0.68;100.00
23659;BME280;12006;42.666;23.326;2023-02-17T00:41:32;-23798.41;;;0.77;100.00
23659;BME280;12006;42.666;23.326;2023-02-17T00:43:58;-23791.00;;;0.56;100.00
23659;BME280;12006;42.666;23.326;2023-02-17T00:46:24;-23797.19;;;0.73;100.00
23659;BME280;12006;42.666;23.326;2023-02-17T00:48:50;-23799.09;;;0.79;100.00
23659;BME280;12006;42.666;23.326;2023-02-17T00:51:16;-23798.06;;;0.76;100.00
23659;BME280;12006;42.666;23.326;2023-02-17T00:53:42;-23795.66;;;0.69;100.00
23659;BME280;12006;42.666;23.326;2023-02-17T00:56:08;-23796.84;;;0.72;100.00
23659;BME280;12006;42.666;23.326;2023-02-17T00:58:34;-23796.69;;;0.72;100.00
23659;BME280;12006;42.666;23.326;2023-02-17T01:01:00;-23798.41;;;0.77;100.00
23659;BME280;12006;42.666;23.326;2023-02-17T01:03:26;-23801.69;;;0.86;100.00
23659;BME280;12006;42.666;23.326;2023-02-17T01:05:53;-23798.75;;;0.78;100.00
23659;BME280;12006;42.666;23.326;2023-02-17T01:08:20;-23802.03;;;0.87;100.00
23659;BME280;12006;42.666;23.326;2023-02-17T01:10:46;-23796.84;;;0.72;100.00
23659;BME280;12006;42.666;23.326;2023-02-17T01:13:13;-23800.47;;;0.83;100.00
23659;BME280;12006;42.666;23.326;2023-02-17T01:15:44;-23801.34;;;0.85;100.00
23659;BME280;12006;42.666;23.326;2023-02-17T01:18:10;-23800.31;;;0.82;100.00
23659;BME280;12006;42.666;23.326;2023-02-17T01:20:36;-23801.84;;;0.87;100.00
23659;BME280;12006;42.666;23.326;2023-02-17T01:23:02;-23796.69;;;0.72;100.00
23659;BME280;12006;42.666;23.326;2023-02-17T01:25:28;-23800.31;;;0.82;100.00
23659;BME280;12006;42.666;23.326;2023-02-17T01:27:54;-23797.53;;;0.74;100.00
23659;BME280;12006;42.666;23.326;2023-02-17T01:30:19;-23801.84;;;0.87;100.00
23659;BME280;12006;42.666;23.326;2023-02-17T01:32:45;-23797.72;;;0.75;100.00
23659;BME280;12006;42.666;23.326;2023-02-17T01:35:10;-23797.88;;;0.75;100.00
23659;BME280;12006;42.666;23.326;2023-02-17T01:37:36;-23800.66;;;0.83;100.00
23659;BME280;12006;42.666;23.326;2023-02-17T01:40:02;-23799.78;;;0.81;100.00
23659;BME280;12006;42.666;23.326;2023-02-17T01:42:27;-23797.88;;;0.75;100.00
23659;BME280;12006;42.666;23.326;2023-02-17T01:45:33;-23795.66;;;0.69;100.00
23659;BME280;12006;42.666;23.326;2023-02-17T01:48:04;-23798.06;;;0.76;100.00
23659;BME280;12006;42.666;23.326;2023-02-17T01:50:36;-23793.75;;;0.63;100.00
23659;BME280;12006;42.666;23.326;2023-02-17T01:53:04;-23796.50;;;0.71;100.00
23659;BME280;12006;42.666;23.326;2023-02-17T01:55:32;-23798.06;;;0.76;100.00
23659;BME280;12006;42.666;23.326;2023-02-17T01:57:59;-23795.66;;;0.69;100.00
23659;BME280;12006;42.666;23.326;2023-02-17T02:00:27;-23794.09;;;0.64;100.00
23659;BME280;12006;42.666;23.326;2023-02-17T02:02:54;-23792.19;;;0.59;100.00
23659;BME280;12006;42.666;23.326;2023-02-17T02:05:21;-23793.75;;;0.63;100.00
23659;BME280;12006;42.666;23.326;2023-02-17T02:07:48;-23786.34;;;0.42;100.00
23659;BME280;12006;42.666;23.326;2023-02-17T02:10:15;-23791.84;;;0.58;100.00
23659;BME280;12006;42.666;23.326;2023-02-17T02:12:42;-23791.50;;;0.57;100.00
23659;BME280;12006;42.666;23.326;2023-02-17T02:15:20;-23793.22;;;0.62;100.00
23659;BME280;12006;42.666;23.326;2023-02-17T02:24:22;-23791.16;;;0.56;100.00
23659;BME280;12006;42.666;23.326;2023-02-17T02:27:02;-23785.63;;;0.40;100.00
23659;BME280;12006;42.666;23.326;2023-02-17T02:29:41;-23788.75;;;0.49;100.00
23659;BME280;12006;42.666;23.326;2023-02-17T02:32:37;-23789.78;;;0.52;100.00
23659;BME280;12006;42.666;23.326;2023-02-17T02:35:10;-23789.25;;;0.51;100.00
23659;BME280;12006;42.666;23.326;2023-02-17T02:37:59;-23788.56;;;0.49;100.00
23659;BME280;12006;42.666;23.326;2023-02-17T02:40:30;-23787.19;;;0.45;100.00
23659;BME280;12006;42.666;23.326;2023-02-17T02:42:57;-23786.34;;;0.42;100.00
23659;BME280;12006;42.666;23.326;2023-02-17T02:45:24;-23782.88;;;0.32;100.00
23659;BME280;12006;42.666;23.326;2023-02-17T02:47:54;-23780.47;;;0.25;100.00
23659;BME280;12006;42.666;23.326;2023-02-17T02:50:34;-23781.50;;;0.28;100.00
23659;BME280;12006;42.666;23.326;2023-02-17T02:58:49;-23789.09;;;0.50;100.00
23659;BME280;12006;42.666;23.326;2023-02-17T03:01:42;-23787.72;;;0.46;100.00
23659;BME280;12006;42.666;23.326;2023-02-17T03:04:32;-23789.09;;;0.50;100.00
23659;BME280;12006;42.666;23.326;2023-02-17T03:07:12;-23788.06;;;0.47;100.00
23659;BME280;12006;42.666;23.326;2023-02-17T03:09:48;-23785.63;;;0.40;100.00
23659;BME280;12006;42.666;23.326;2023-02-17T03:12:15;-23787.38;;;0.45;100.00
23659;BME280;12006;42.666;23.326;2023-02-17T03:14:41;-23787.03;;;0.44;100.00
23659;BME280;12006;42.666;23.326;2023-02-17T03:17:07;-23787.72;;;0.46;100.00
23659;BME280;12006;42.666;23.326;2023-02-17T03:19:33;-23790.13;;;0.53;100.00
23659;BME280;12006;42.666;23.326;2023-02-17T03:22:14;-23788.06;;;0.47;100.00
23659;BME280;12006;42.666;23.326;2023-02-17T03:24:41;-23785.13;;;0.39;100.00
23659;BME280;12006;42.666;23.326;2023-02-17T03:27:07;-23788.06;;;0.47;100.00
23659;BME280;12006;42.666;23.326;2023-02-17T03:29:32;-23785.63;;;0.40;100.00
23659;BME280;12006;42.666;23.326;2023-02-17T03:31:58;-23786.34;;;0.42;100.00
23659;BME280;12006;42.666;23.326;2023-02-17T03:34:23;-23784.25;;;0.36;100.00
23659;BME280;12006;42.666;23.326;2023-02-17T03:36:48;-23784.78;;;0.38;100.00
23659;BME280;12006;42.666;23.326;2023-02-17T03:39:14;-23788.75;;;0.49;100.00
23659;BME280;12006;42.666;23.326;2023-02-17T03:41:39;-23790.13;;;0.53;100.00
23659;BME280;12006;42.666;23.326;2023-02-17T03:44:05;-23788.75;;;0.49;100.00
23659;BME280;12006;42.666;23.326;2023-02-17T03:46:30;-23786.00;;;0.41;100.00
23659;BME280;12006;42.666;23.326;2023-02-17T03:48:55;-23782.19;;;0.30;100.00
23659;BME280;12006;42.666;23.326;2023-02-17T03:51:22;-23782.38;;;0.31;100.00
23659;BME280;12006;42.666;23.326;2023-02-17T03:53:49;-23787.88;;;0.47;100.00
23659;BME280;12006;42.666;23.326;2023-02-17T03:56:15;-23787.88;;;0.47;100.00
23659;BME280;12006;42.666;23.326;2023-02-17T03:58:40;-23786.84;;;0.44;100.00
23659;BME280;12006;42.666;23.326;2023-02-17T04:01:08;-23786.16;;;0.42;100.00
23659;BME280;12006;42.666;23.326;2023-02-17T04:03:35;-23785.81;;;0.41;100.00
23659;BME280;12006;42.666;23.326;2023-02-17T04:06:01;-23787.38;;;0.45;100.00
23659;BME280;12006;42.666;23.326;2023-02-17T04:08:27;-23787.03;;;0.44;100.00
23659;BME280;12006;42.666;23.326;2023-02-17T04:10:54;-23784.44;;;0.37;100.00
23659;BME280;12006;42.666;23.326;2023-02-17T04:13:20;-23784.25;;;0.36;100.00
23659;BME280;12006;42.666;23.326;2023-02-17T04:15:46;-23783.56;;;0.34;100.00
23659;BME280;12006;42.666;23.326;2023-02-17T04:18:12;-23783.91;;;0.35;100.00
23659;BME280;12006;42.666;23.326;2023-02-17T04:20:37;-23782.03;;;0.30;100.00
23659;BME280;12006;42.666;23.326;2023-02-17T04:23:03;-23780.63;;;0.26;100.00
23659;BME280;12006;42.666;23.326;2023-02-17T04:25:28;-23785.13;;;0.39;100.00
23659;BME280;12006;42.666;23.326;2023-02-17T04:27:53;-23786.84;;;0.44;100.00
23659;BME280;12006;42.666;23.326;2023-02-17T04:30:19;-23787.53;;;0.46;100.00
23659;BME280;12006;42.666;23.326;2023-02-17T04:32:44;-23785.28;;;0.39;100.00
23659;BME280;12006;42.666;23.326;2023-02-17T04:35:10;-23782.88;;;0.32;100.00
23659;BME280;12006;42.666;23.326;2023-02-17T04:37:35;-23783.41;;;0.34;100.00
23659;BME280;12006;42.666;23.326;2023-02-17T04:40:00;-23787.88;;;0.47;100.00
23659;BME280;12006;42.666;23.326;2023-02-17T04:42:26;-23785.28;;;0.39;100.00
23659;BME280;12006;42.666;23.326;2023-02-17T04:44:51;-23785.47;;;0.40;100.00
23659;BME280;12006;42.666;23.326;2023-02-17T04:47:17;-23788.41;;;0.48;100.00
23659;BME280;12006;42.666;23.326;2023-02-17T04:49:42;-23791.16;;;0.56;100.00
23659;BME280;12006;42.666;23.326;2023-02-17T04:52:07;-23789.78;;;0.52;100.00
23659;BME280;12006;42.666;23.326;2023-02-17T04:54:33;-23790.81;;;0.55;100.00
23659;BME280;12006;42.666;23.326;2023-02-17T04:56:58;-23783.91;;;0.35;100.00
23659;BME280;12006;42.666;23.326;2023-02-17T04:59:23;-23788.91;;;0.50;100.00
23659;BME280;12006;42.666;23.326;2023-02-17T05:01:49;-23788.75;;;0.49;100.00
23659;BME280;12006;42.666;23.326;2023-02-17T05:04:14;-23787.38;;;0.45;100.00
23659;BME280;12006;42.666;23.326;2023-02-17T05:06:40;-23790.47;;;0.54;100.00
23659;BME280;12006;42.666;23.326;2023-02-17T05:09:05;-23786.69;;;0.43;100.00
23659;BME280;12006;42.666;23.326;2023-02-17T05:11:30;-23787.72;;;0.46;100.00
23659;BME280;12006;42.666;23.326;2023-02-17T05:13:56;-23787.38;;;0.45;100.00
23659;BME280;12006;42.666;23.326;2023-02-17T05:16:21;-23785.13;;;0.39;100.00
23659;BME280;12006;42.666;23.326;2023-02-17T05:18:47;-23786.34;;;0.42;100.00
23659;BME280;12006;42.666;23.326;2023-02-17T05:21:12;-23784.59;;;0.37;100.00
23659;BME280;12006;42.666;23.326;2023-02-17T05:23:37;-23790.13;;;0.53;100.00
23659;BME280;12006;42.666;23.326;2023-02-17T05:26:09;-23789.59;;;0.52;100.00
23659;BME280;12006;42.666;23.326;2023-02-17T05:28:35;-23796.34;;;0.71;100.00
23659;BME280;12006;42.666;23.326;2023-02-17T05:31:02;-23796.50;;;0.71;100.00
23659;BME280;12006;42.666;23.326;2023-02-17T05:33:28;-23798.91;;;0.78;100.00
23659;BME280;12006;42.666;23.326;2023-02-17T05:35:53;-23800.47;;;0.83;100.00
23659;BME280;12006;42.666;23.326;2023-02-17T05:38:19;-23798.06;;;0.76;100.00
23659;BME280;12006;42.666;23.326;2023-02-17T05:40:44;-23801.16;;;0.85;100.00
23659;BME280;12006;42.666;23.326;2023-02-17T05:43:10;-23802.19;;;0.88;100.00
23659;BME280;12006;42.666;23.326;2023-02-17T05:45:35;-23802.19;;;0.88;100.00
23659;BME280;12006;42.666;23.326;2023-02-17T05:48:00;-23799.94;;;0.81;100.00
23659;BME280;12006;42.666;23.326;2023-02-17T05:50:26;-23804.44;;;0.94;100.00
23659;BME280;12006;42.666;23.326;2023-02-17T05:52:51;-23804.97;;;0.96;100.00
23659;BME280;12006;42.666;23.326;2023-02-17T05:55:17;-23800.31;;;0.82;100.00
23659;BME280;12006;42.666;23.326;2023-02-17T05:57:42;-23803.56;;;0.92;100.00
23659;BME280;12006;42.666;23.326;2023-02-17T06:00:08;-23806.34;;;1.00;100.00
23659;BME280;12006;42.666;23.326;2023-02-17T06:02:33;-23811.50;;;1.15;100.00
23659;BME280;12006;42.666;23.326;2023-02-17T06:04:59;-23812.88;;;1.18;100.00
23659;BME280;12006;42.666;23.326;2023-02-17T06:07:24;-23816.34;;;1.28;100.00
23659;BME280;12006;42.666;23.326;2023-02-17T06:09:50;-23819.44;;;1.37;100.00
23659;BME280;12006;42.666;23.326;2023-02-17T06:12:15;-23824.25;;;1.51;100.00
23659;BME280;12006;42.666;23.326;2023-02-17T06:14:40;-23827.72;;;1.61;100.00
23659;BME280;12006;42.666;23.326;2023-02-17T06:17:06;-23828.75;;;1.64;100.00
23659;BME280;12006;42.666;23.326;2023-02-17T06:19:31;-23829.78;;;1.67;100.00
23659;BME280;12006;42.666;23.326;2023-02-17T06:21:57;-23831.16;;;1.71;100.00
23659;BME280;12006;42.666;23.326;2023-02-17T06:24:23;-23838.06;;;1.91;100.00
23659;BME280;12006;42.666;23.326;2023-02-17T06:26:49;-23839.78;;;1.96;100.00
23659;BME280;12006;42.666;23.326;2023-02-17T06:29:14;-23844.94;;;2.11;100.00
23659;BME280;12006;42.666;23.326;2023-02-17T06:31:39;-23848.22;;;2.20;100.00
23659;BME280;12006;42.666;23.326;2023-02-17T06:34:05;-23849.78;;;2.25;100.00
23659;BME280;12006;42.666;23.326;2023-02-17T06:36:30;-23851.31;;;2.29;100.00
23659;BME280;12006;42.666;23.326;2023-02-17T06:38:56;-23850.81;;;2.28;100.00
23659;BME280;12006;42.666;23.326;2023-02-17T06:41:21;-23856.31;;;2.43;100.00
23659;BME280;12006;42.666;23.326;2023-02-17T06:43:46;-23856.66;;;2.44;100.00
23659;BME280;12006;42.666;23.326;2023-02-17T06:46:12;-23861.50;;;2.58;100.00
23659;BME280;12006;42.666;23.326;2023-02-17T06:48:37;-23865.28;;;2.69;100.00
23659;BME280;12006;42.666;23.326;2023-02-17T06:51:03;-23865.81;;;2.71;100.00
23659;BME280;12006;42.666;23.326;2023-02-17T06:53:28;-23870.09;;;2.83;100.00
23659;BME280;12006;42.666;23.326;2023-02-17T06:55:54;-23873.19;;;2.92;100.00
23659;BME280;12006;42.666;23.326;2023-02-17T06:58:19;-23877.00;;;3.03;100.00
23659;BME280;12006;42.666;23.326;2023-02-17T07:00:44;-23883.53;;;3.22;100.00
23659;BME280;12006;42.666;23.326;2023-02-17T07:03:10;-23887.16;;;3.32;100.00
23659;BME280;12006;42.666;23.326;2023-02-17T07:05:36;-23888.72;;;3.37;100.00
23659;BME280;12006;42.666;23.326;2023-02-17T07:08:03;-23891.47;;;3.45;100.00
23659;BME280;12006;42.666;23.326;2023-02-17T07:10:29;-23893.00;;;3.49;100.00
23659;BME280;12006;42.666;23.326;2023-02-17T07:12:54;-23898.69;;;3.65;100.00
23659;BME280;12006;42.666;23.326;2023-02-17T07:15:20;-23897.88;;;3.68;100.00
23659;BME280;12006;42.666;23.326;2023-02-17T07:17:45;-23904.59;;;3.88;100.00
23659;BME280;12006;42.666;23.326;2023-02-17T07:20:11;-23592.16;;;3.95;100.00
23659;BME280;12006;42.666;23.326;2023-02-17T07:22:36;-23600.31;;;4.19;100.00
23659;BME280;12006;42.666;23.326;2023-02-17T07:25:03;-23285.13;;;4.19;100.00
23659;BME280;12006;42.666;23.326;2023-02-17T07:27:28;-23288.97;;;4.30;100.00
23659;BME280;12006;42.666;23.326;2023-02-17T07:29:54;-22976.84;;;4.40;100.00
23659;BME280;12006;42.666;23.326;2023-02-17T07:32:19;-22978.16;;;4.44;100.00
23659;BME280;12006;42.666;23.326;2023-02-17T07:34:45;-22668.00;;;4.60;100.00
23659;BME280;12006;42.666;23.326;2023-02-17T07:37:10;-22358.41;;;4.78;100.00
23659;BME280;12006;42.666;23.326;2023-02-17T07:39:36;-21732.78;;;4.96;100.00
23659;BME280;12006;42.666;23.326;2023-02-17T07:42:01;-21419.31;;;5.03;100.00
23659;BME280;12006;42.666;23.326;2023-02-17T07:44:29;-21423.25;;;5.16;100.00
23659;BME280;12006;42.666;23.326;2023-02-17T07:46:54;-20796.78;;;5.34;100.00
23659;BME280;12006;42.666;23.326;2023-02-17T07:49:20;-20798.81;;;5.41;100.00
23659;BME280;12006;42.666;23.326;2023-02-17T07:51:45;-20486.81;;;5.55;100.00
23659;BME280;12006;42.666;23.326;2023-02-17T07:54:11;-20175.47;;;5.72;100.00
23659;BME280;12006;42.666;23.326;2023-02-17T07:56:37;-20178.84;;;5.84;100.00
23659;BME280;12006;42.666;23.326;2023-02-17T07:59:03;-20177.03;;;5.77;100.00
23659;BME280;12006;42.666;23.326;2023-02-17T08:01:31;-20184.50;;;6.03;100.00
23659;BME280;12006;42.666;23.326;2023-02-17T08:03:57;-19871.41;;;6.15;100.00
23659;BME280;12006;42.666;23.326;2023-02-17T08:06:23;-19559.38;;;6.32;100.00
23659;BME280;12006;42.666;23.326;2023-02-17T08:08:50;-19561.41;;;6.39;100.00
23659;BME280;12006;42.666;23.326;2023-02-17T08:11:35;-19565.34;;;6.54;100.00
23659;BME280;12006;42.666;23.326;2023-02-17T08:14:20;-19250.63;;;6.61;100.00
23659;BME280;12006;42.666;23.326;2023-02-17T08:16:46;-19569.16;;;6.67;100.00
23659;BME280;12006;42.666;23.326;2023-02-17T08:19:11;-19572.00;;;6.78;100.00
23659;BME280;12006;42.666;23.326;2023-02-17T08:21:37;-19894.38;;;6.98;100.00
23659;BME280;12006;42.666;23.326;2023-02-17T08:24:03;-19899.50;;;7.16;100.00
23659;BME280;12006;42.666;23.326;2023-02-17T08:26:28;-19904.34;;;7.33;98.97
23659;BME280;12006;42.666;23.326;2023-02-17T08:28:54;-19907.53;;;7.45;99.00
23659;BME280;12006;42.666;23.326;2023-02-17T08:31:29;-20228.47;;;7.58;99.46
23659;BME280;12006;42.666;23.326;2023-02-17T08:33:55;-19910.69;;;7.56;96.69
23659;BME280;12006;42.666;23.326;2023-02-17T08:36:21;-19916.78;;;7.78;96.18
23659;BME280;12006;42.666;23.326;2023-02-17T08:38:53;-20240.03;;;7.99;93.63
23659;BME280;12006;42.666;23.326;2023-02-17T08:41:34;-20244.69;;;8.15;93.46
23659;BME280;12006;42.666;23.326;2023-02-17T08:44:02;-20568.34;;;8.37;91.72
23659;BME280;12006;42.666;23.326;2023-02-17T08:46:28;-20573.09;;;8.53;89.12
23659;BME280;12006;42.666;23.326;2023-02-17T08:48:54;-20575.09;;;8.60;88.08
23659;BME280;12006;42.666;23.326;2023-02-17T08:51:22;-20575.22;;;8.60;86.99
23659;BME280;12006;42.666;23.326;2023-02-17T08:53:54;-20898.91;;;8.81;85.15
23659;BME280;12006;42.666;23.326;2023-02-17T08:56:21;-20911.03;;;9.22;79.11
23659;BME280;12006;42.666;23.326;2023-02-17T08:58:48;-21233.63;;;9.37;78.61
23659;BME280;12006;42.666;23.326;2023-02-17T09:01:14;-21237.50;;;9.50;78.44
23659;BME280;12006;42.666;23.326;2023-02-17T09:03:40;-21560.91;;;9.67;76.22
23659;BME280;12006;42.666;23.326;2023-02-17T09:06:06;-21564.69;;;9.80;73.89
23659;BME280;12006;42.666;23.326;2023-02-17T09:08:32;-21568.44;;;9.92;72.31
23659;BME280;12006;42.666;23.326;2023-02-17T09:10:58;-21896.75;;;10.25;68.44
23659;BME280;12006;42.666;23.326;2023-02-17T09:13:24;-21905.03;;;10.51;65.79
23659;BME280;12006;42.666;23.326;2023-02-17T09:15:51;-21923.63;;;11.11;55.13
23659;BME280;12006;42.666;23.326;2023-02-17T09:18:18;-21937.72;;;11.57;51.05
23659;BME280;12006;42.666;23.326;2023-02-17T09:20:44;-21945.41;;;11.82;48.76
23659;BME280;12006;42.666;23.326;2023-02-17T09:23:09;-22269.06;;;11.96;48.09
23659;BME280;12006;42.666;23.326;2023-02-17T09:25:35;-22272.94;;;12.08;47.90
23659;BME280;12006;42.666;23.326;2023-02-17T09:28:00;-22276.84;;;12.20;46.61
23659;BME280;12006;42.666;23.326;2023-02-17T09:30:26;-22282.47;;;12.38;46.35
23659;BME280;12006;42.666;23.326;2023-02-17T09:32:51;-22285.13;;;12.47;46.17
23659;BME280;12006;42.666;23.326;2023-02-17T09:35:17;-22609.31;;;12.61;46.15
23659;BME280;12006;42.666;23.326;2023-02-17T09:37:43;-22611.34;;;12.68;45.48
23659;BME280;12006;42.666;23.326;2023-02-17T09:40:21;-22614.53;;;12.77;45.50
23659;BME280;12006;42.666;23.326;2023-02-17T09:42:47;-22618.34;;;12.89;45.72
23659;BME280;12006;42.666;23.326;2023-02-17T09:45:25;-22621.50;;;12.99;43.84
23659;BME280;12006;42.666;23.326;2023-02-17T09:47:54;-22943.91;;;13.07;44.19
23659;BME280;12006;42.666;23.326;2023-02-17T09:50:26;-22947.94;;;13.20;44.21
23659;BME280;12006;42.666;23.326;2023-02-17T09:53:06;-22949.06;;;13.23;43.00
23659;BME280;12006;42.666;23.326;2023-02-17T09:55:44;-22627.03;;;13.17;43.25
23659;BME280;12006;42.666;23.326;2023-02-17T10:00:43;-22625.47;;;13.12;42.73
23659;BME280;12006;42.666;23.326;2023-02-17T10:06:23;-22953.41;;;13.36;42.45
23659;BME280;12006;42.666;23.326;2023-02-17T10:08:54;-22956.81;;;13.47;42.15
23659;BME280;12006;42.666;23.326;2023-02-17T10:11:27;-22963.25;;;13.67;42.34
23659;BME280;12006;42.666;23.326;2023-02-17T10:13:57;-23285.53;;;13.73;42.31
23659;BME280;12006;42.666;23.326;2023-02-17T10:16:27;-23288.63;;;13.83;41.20
23659;BME280;12006;42.666;23.326;2023-02-17T10:19:00;-23292.41;;;13.94;41.22
23659;BME280;12006;42.666;23.326;2023-02-17T10:21:39;-23291.91;;;13.93;40.25
23659;BME280;12006;42.666;23.326;2023-02-17T10:24:06;-22966.63;;;13.77;39.47
23659;BME280;12006;42.666;23.326;2023-02-17T10:26:39;-22639.88;;;13.57;39.48
23659;BME280;12006;42.666;23.326;2023-02-17T10:29:21;-22314.25;;;13.39;39.88
23659;BME280;12006;42.666;23.326;2023-02-17T10:32:14;-22312.69;;;13.34;40.33
23659;BME280;12006;42.666;23.326;2023-02-17T10:37:47;-22639.72;;;13.56;40.23
23659;BME280;12006;42.666;23.326;2023-02-17T10:40:17;-22639.09;;;13.54;39.97
23659;BME280;12006;42.666;23.326;2023-02-17T10:42:44;-22314.41;;;13.40;40.26
23659;BME280;12006;42.666;23.326;2023-02-17T10:47:45;-22643.53;;;13.68;41.17
23659;BME280;12006;42.666;23.326;2023-02-17T10:50:18;-22968.72;;;13.84;40.69
23659;BME280;12006;42.666;23.326;2023-02-17T10:52:44;-22972.09;;;13.94;39.99
23659;BME280;12006;42.666;23.326;2023-02-17T10:55:28;-22645.59;;;13.75;40.23
23659;BME280;12006;42.666;23.326;2023-02-17T11:01:03;-22643.84;;;13.69;40.65
23659;BME280;12006;42.666;23.326;2023-02-17T11:03:31;-22320.81;;;13.60;40.15
23659;BME280;12006;42.666;23.326;2023-02-17T11:06:20;-22643.53;;;13.68;40.29
23659;BME280;12006;42.666;23.326;2023-02-17T11:08:50;-22650.34;;;13.90;40.23
23659;BME280;12006;42.666;23.326;2023-02-17T11:11:27;-22971.59;;;13.93;40.44
23659;BME280;12006;42.666;23.326;2023-02-17T11:16:43;-22973.69;;;13.99;40.93
23659;BME280;12006;42.666;23.326;2023-02-17T11:19:19;-22649.53;;;13.87;40.55
23659;BME280;12006;42.666;23.326;2023-02-17T11:21:46;-22648.44;;;13.84;40.73
23659;BME280;12006;42.666;23.326;2023-02-17T11:24:11;-22971.75;;;13.93;40.42
23659;BME280;12006;42.666;23.326;2023-02-17T11:26:37;-22974.66;;;14.02;40.49
23659;BME280;12006;42.666;23.326;2023-02-17T11:29:14;-22973.38;;;13.98;40.25
23659;BME280;12006;42.666;23.326;2023-02-17T11:31:40;-22650.50;;;13.90;40.53
23659;BME280;12006;42.666;23.326;2023-02-17T11:34:14;-22972.72;;;13.96;40.92
23659;BME280;12006;42.666;23.326;2023-02-17T11:36:43;-22976.94;;;14.09;40.85
23659;BME280;12006;42.666;23.326;2023-02-17T11:39:17;-22976.59;;;14.08;41.36
23659;BME280;12006;42.666;23.326;2023-02-17T11:41:43;-22978.38;;;14.13;41.13
23659;BME280;12006;42.666;23.326;2023-02-17T11:44:09;-22978.38;;;14.13;41.38
23659;BME280;12006;42.666;23.326;2023-02-17T11:46:43;-23301.56;;;14.22;41.44
23659;BME280;12006;42.666;23.326;2023-02-17T11:49:33;-22976.94;;;14.09;40.83
23659;BME280;12006;42.666;23.326;2023-02-17T11:52:13;-22976.59;;;14.08;41.43
23659;BME280;12006;42.666;23.326;2023-02-17T12:25:26;-22978.22;;;14.13;41.47
23659;BME280;12006;42.666;23.326;2023-02-17T12:34:16;-22653.03;;;13.98;41.84
23659;BME280;12006;42.666;23.326;2023-02-17T12:36:27;-22652.38;;;13.96;42.32
23659;BME280;12006;42.666;23.326;2023-02-17T12:38:57;-22975.31;;;14.04;42.08
23659;BME280;12006;42.666;23.326;2023-02-17T12:41:35;-22976.44;;;14.07;41.75
23659;BME280;12006;42.666;23.326;2023-02-17T12:44:12;-22978.53;;;14.14;42.15
23659;BME280;12006;42.666;23.326;2023-02-17T12:46:41;-22982.06;;;14.25;42.05
23659;BME280;12006;42.666;23.326;2023-02-17T12:49:11;-22984.00;;;14.31;41.47
23659;BME280;12006;42.666;23.326;2023-02-17T12:51:47;-22981.25;;;14.22;41.43
23659;BME280;12006;42.666;23.326;2023-02-17T12:54:24;-22978.69;;;14.14;41.21
23659;BME280;12006;42.666;23.326;2023-02-17T12:59:39;-22978.38;;;14.13;41.94
23659;BME280;12006;42.666;23.326;2023-02-17T13:02:09;-22978.53;;;14.14;41.98
23659;BME280;12006;42.666;23.326;2023-02-17T13:04:35;-22981.91;;;14.24;41.31
23659;BME280;12006;42.666;23.326;2023-02-17T13:07:31;-22983.34;;;14.29;41.72
23659;BME280;12006;42.666;23.326;2023-02-17T13:10:00;-22983.69;;;14.30;41.44
23659;BME280;12006;42.666;23.326;2023-02-17T13:14:56;-22985.28;;;14.35;41.15
23659;BME280;12006;42.666;23.326;2023-02-17T13:17:37;-22982.56;;;14.26;41.56
23659;BME280;12006;42.666;23.326;2023-02-17T13:20:25;-22985.78;;;14.36;40.99
23659;BME280;12006;42.666;23.326;2023-02-17T13:23:03;-23310.72;;;14.50;41.34
23659;BME280;12006;42.666;23.326;2023-02-17T13:25:31;-23313.00;;;14.56;40.93
23659;BME280;12006;42.666;23.326;2023-02-17T13:28:01;-23314.31;;;14.60;40.79
23659;BME280;12006;42.666;23.326;2023-02-17T13:30:37;-22990.13;;;14.50;39.88
23659;BME280;12006;42.666;23.326;2023-02-17T13:35:32;-22992.03;;;14.55;39.81
23659;BME280;12006;42.666;23.326;2023-02-17T13:37:58;-23315.78;;;14.65;39.63
23659;BME280;12006;42.666;23.326;2023-02-17T13:40:31;-23320.19;;;14.78;38.96
23659;BME280;12006;42.666;23.326;2023-02-17T13:43:15;-23321.16;;;14.81;38.12
23659;BME280;12006;42.666;23.326;2023-02-17T13:45:44;-22999.59;;;14.79;37.30
23659;BME280;12006;42.666;23.326;2023-02-17T13:50:47;-22997.03;;;14.71;37.97
23659;BME280;12006;42.666;23.326;2023-02-17T13:53:34;-22998.16;;;14.74;37.99
23659;BME280;12006;42.666;23.326;2023-02-17T13:56:08;-22998.63;;;14.76;37.93
23659;BME280;12006;42.666;23.326;2023-02-17T13:58:37;-22999.44;;;14.78;37.31
23659;BME280;12006;42.666;23.326;2023-02-17T14:01:04;-22995.75;;;14.67;36.80
23659;BME280;12006;42.666;23.326;2023-02-17T14:06:06;-22674.88;;;14.66;36.11